Terminal Aerodrome Forecast
Issued by NWS Newport/Morehead City, NC

Home | Current Version | Previous Version | Graphics & Text | Print | Product List | Glossary Off
Versions: 1 2 3 4 5 6 7 8 9 10 11 12 13 14 15 16 17 18 19 20

000
FTUS42 KMHX 122300
TAFEWN
TAF
KEWN 122330Z 1300/1324 15007KT P6SM BKN040
     FM130200 21004KT P6SM SKC
     FM130800 23003KT 4SM BR SKC
     FM131300 24007KT P6SM SKC
     FM131700 22006KT P6SM SCT040=

USA.gov is the U.S. government's official web portal to all federal, state and local government web resources and services.